Time;durP1;ratioP1;P1;durP2;ratioP2;P2;SDS_P1;SDS_P2;PMS_P1;PMS_P2;Temp;Humidity;BMP_temperature;BMP_pressure;BME280_temperature;BME280_humidity;BME280_pressure;Samples;Min_cycle;Max_cycle;Signal;HPM_P1;HPM_P2
2022/01/02 00:00:18;;;;;;;11.40;6.60;;;;;;;9.81;74.92;100709.44;5050287;28;20043;-21
2022/01/02 00:02:49;;;;;;;10.10;6.88;;;;;;;9.85;74.74;100719.47;5049666;28;20110;-21
2022/01/02 00:05:15;;;;;;;11.57;7.30;;;;;;;9.88;74.70;100726.25;5050145;28;20459;-22
2022/01/02 00:07:46;;;;;;;10.70;6.88;;;;;;;9.91;74.14;100728.53;5067393;28;20021;-22
2022/01/02 00:10:12;;;;;;;10.82;6.40;;;;;;;9.77;74.38;100710.84;5067930;28;20115;-21
2022/01/02 00:12:37;;;;;;;11.50;6.45;;;;;;;9.90;74.49;100726.88;5067887;28;20028;-22
2022/01/02 00:15:04;;;;;;;10.80;6.82;;;;;;;9.88;73.53;100723.59;5033321;28;20036;-22
2022/01/02 00:17:30;;;;;;;10.57;6.77;;;;;;;9.92;74.09;100734.69;5067238;28;20070;-22
2022/01/02 00:19:57;;;;;;;12.75;7.18;;;;;;;9.95;74.07;100729.78;5049914;28;20069;-21
2022/01/02 00:22:34;;;;;;;10.35;6.75;;;;;;;9.92;73.94;100745.34;5049859;28;20039;-22
2022/01/02 00:24:59;;;;;;;12.32;6.85;;;;;;;9.97;73.90;100753.53;5067740;28;20025;-22
2022/01/02 00:27:25;;;;;;;11.68;6.63;;;;;;;9.97;73.52;100750.88;5067330;28;20039;-21
2022/01/02 00:29:50;;;;;;;13.43;7.40;;;;;;;10.01;73.90;100755.63;5067227;28;20117;-21
2022/01/02 00:32:16;;;;;;;11.05;7.15;;;;;;;9.97;73.84;100751.72;5033156;28;20040;-22
2022/01/02 00:34:41;;;;;;;10.65;6.68;;;;;;;9.95;74.40;100745.78;5049433;28;20875;-21
2022/01/02 00:37:07;;;;;;;12.20;7.22;;;;;;;9.97;73.88;100754.38;5067395;28;20555;-21
2022/01/02 00:39:32;;;;;;;12.90;7.90;;;;;;;9.86;74.63;100750.41;5049278;28;20503;-21
2022/01/02 00:42:07;;;;;;;14.00;6.82;;;;;;;9.80;74.07;100753.06;5067589;28;20926;-21
2022/01/02 00:44:48;;;;;;;10.93;7.70;;;;;;;9.81;73.97;100747.53;5050011;28;20033;-22
2022/01/02 00:47:25;;;;;;;10.70;7.90;;;;;;;9.99;73.66;100768.34;5050220;28;20484;-21
2022/01/02 00:50:10;;;;;;;11.10;6.95;;;;;;;9.91;74.29;100770.31;5067712;28;20078;-22
2022/01/02 00:52:39;;;;;;;11.48;8.02;;;;;;;9.91;73.91;100760.50;5051509;28;20051;-22
2022/01/02 00:55:11;;;;;;;14.25;8.70;;;;;;;9.90;73.88;100774.84;5049270;28;20500;-22
2022/01/02 00:57:37;;;;;;;11.77;8.27;;;;;;;9.99;73.84;100775.47;5067260;28;20033;-21
2022/01/02 01:00:14;;;;;;;11.65;7.50;;;;;;;9.70;74.57;100747.25;5070648;28;20766;-22
2022/01/02 01:02:50;;;;;;;12.25;7.72;;;;;;;9.65;74.90;100730.03;5071379;28;20021;-22
2022/01/02 01:05:36;;;;;;;10.57;7.65;;;;;;;9.82;74.62;100772.31;5071317;28;20037;-21
2022/01/02 01:08:06;;;;;;;11.30;7.10;;;;;;;9.64;74.67;100775.50;5053361;28;20020;-22
2022/01/02 01:10:33;;;;;;;10.48;7.00;;;;;;;9.73;74.51;100773.53;5071096;28;20036;-22
2022/01/02 01:13:01;;;;;;;11.43;7.78;;;;;;;9.70;74.55;100773.91;5071186;28;20067;-22
2022/01/02 01:15:28;;;;;;;18.77;11.55;;;;;;;9.68;74.63;100762.63;5070780;28;20048;-21
2022/01/02 01:17:55;;;;;;;16.75;10.15;;;;;;;9.56;74.61;100752.53;5070779;28;20165;-22
2022/01/02 01:20:21;;;;;;;12.30;7.55;;;;;;;9.63;74.78;100769.34;5070941;28;20043;-21
2022/01/02 01:22:46;;;;;;;11.73;7.68;;;;;;;9.57;75.32;100777.31;5070728;28;20036;-22
2022/01/02 01:25:15;;;;;;;9.85;6.38;;;;;;;9.59;75.09;100773.41;5070923;28;20035;-22
2022/01/02 01:27:41;;;;;;;10.85;7.30;;;;;;;9.59;75.55;100768.09;5070821;28;20034;-21
2022/01/02 01:30:07;;;;;;;11.57;7.55;;;;;;;9.46;75.64;100765.38;5070476;28;20513;-21
2022/01/02 01:32:33;;;;;;;10.32;6.97;;;;;;;9.49;75.11;100756.97;5070485;28;20024;-22
2022/01/02 01:34:58;;;;;;;10.45;6.40;;;;;;;9.57;75.17;100775.47;5070585;28;20032;-21
2022/01/02 01:37:24;;;;;;;11.13;7.20;;;;;;;9.51;75.39;100775.41;5070329;28;20036;-22
2022/01/02 01:39:51;;;;;;;11.10;6.82;;;;;;;9.44;75.46;100775.38;5070467;28;20718;-21
2022/01/02 01:42:27;;;;;;;10.52;7.43;;;;;;;9.53;75.40;100778.72;5070754;28;20040;-26
2022/01/02 01:45:28;;;;;;;10.80;6.78;;;;;;;9.56;75.21;100773.81;5053816;28;20036;-21
2022/01/02 01:47:38;;;;;;;12.35;8.05;;;;;;;9.55;74.86;100766.84;5069889;28;20115;-21
2022/01/02 01:50:03;;;;;;;12.88;8.40;;;;;;;9.84;73.56;100770.28;5070361;28;20086;-22
2022/01/02 01:52:29;;;;;;;11.70;7.20;;;;;;;9.77;73.60;100772.94;5070545;28;20036;-21
2022/01/02 01:54:54;;;;;;;12.40;8.00;;;;;;;9.68;73.78;100770.59;5070694;28;20101;-22
2022/01/02 01:57:20;;;;;;;11.88;7.88;;;;;;;9.67;73.60;100758.31;5070453;28;20043;-23
2022/01/02 01:59:48;;;;;;;11.80;7.70;;;;;;;9.37;74.70;100779.81;5052407;28;20528;-22
2022/01/02 02:02:15;;;;;;;12.68;7.63;;;;;;;9.29;75.36;100777.31;5070260;28;20028;-22
2022/01/02 02:04:41;;;;;;;35.03;30.23;;;;;;;9.18;75.48;100782.13;5052184;28;20036;-23
2022/01/02 02:07:06;;;;;;;39.80;35.50;;;;;;;9.31;75.28;100780.59;5070269;28;20024;-22
2022/01/02 02:09:46;;;;;;;18.95;15.13;;;;;;;9.21;75.08;100773.78;5070247;28;20037;-21
2022/01/02 02:12:11;;;;;;;11.93;8.65;;;;;;;9.17;75.33;100777.81;5069583;28;20504;-21
2022/01/02 02:14:37;;;;;;;16.80;13.43;;;;;;;9.25;75.03;100776.84;5035195;28;20036;-22
2022/01/02 02:17:03;;;;;;;13.27;8.60;;;;;;;9.32;74.39;100782.25;5069963;28;20082;-22
2022/01/02 02:19:28;;;;;;;15.18;10.15;;;;;;;9.51;73.76;100778.91;5051536;28;20408;-21
2022/01/02 02:21:53;;;;;;;11.35;7.60;;;;;;;9.59;73.07;100768.09;5070010;28;20035;-22
2022/01/02 02:24:19;;;;;;;17.38;11.27;;;;;;;9.61;72.99;100786.56;5051773;28;20033;-22
2022/01/02 02:26:45;;;;;;;11.15;7.97;;;;;;;9.56;72.58;100780.97;5051582;28;20045;-21
2022/01/02 02:29:10;;;;;;;12.10;7.78;;;;;;;9.53;72.90;100768.06;5069815;28;20470;-22
2022/01/02 02:31:36;;;;;;;12.05;7.78;;;;;;;9.60;72.24;100764.44;5069633;28;20461;-21
2022/01/02 02:34:01;;;;;;;10.95;7.50;;;;;;;9.72;72.03;100782.50;5069619;28;20020;-21
2022/01/02 02:36:27;;;;;;;24.75;21.80;;;;;;;9.61;71.78;100782.03;5069651;28;20040;-21
2022/01/02 02:38:53;;;;;;;21.80;16.65;;;;;;;9.60;71.83;100780.41;5069438;28;20029;-22
2022/01/02 02:41:18;;;;;;;40.75;35.55;;;;;;;9.45;72.25;100787.66;5069368;28;20028;-22
2022/01/02 02:43:53;;;;;;;19.13;14.60;;;;;;;9.50;72.66;100785.25;5069140;28;20044;-21
2022/01/02 02:49:04;;;;;;;12.43;8.05;;;;;;;9.44;72.13;100786.03;5069345;28;20063;-21
2022/01/02 02:54:09;;;;;;;11.55;8.50;;;;;;;9.36;72.19;100778.19;5069294;28;20476;-22
2022/01/02 02:56:54;;;;;;;10.35;7.72;;;;;;;9.32;72.03;100776.94;5051241;28;20059;-21
2022/01/02 02:59:20;;;;;;;10.60;7.68;;;;;;;8.92;72.84;100771.25;5054137;28;20024;-22
2022/01/02 03:01:45;;;;;;;15.32;11.25;;;;;;;9.04;72.72;100791.81;5050887;28;20028;-22
2022/01/02 03:04:11;;;;;;;38.38;32.42;;;;;;;9.01;73.43;100796.69;5068855;28;20056;-22
2022/01/02 03:06:36;;;;;;;56.58;44.88;;;;;;;8.85;73.55;100773.88;5069594;28;20044;-22
2022/01/02 03:09:09;;;;;;;90.38;65.75;;;;;;;8.63;74.48;100763.19;5069185;28;20833;-21
2022/01/02 03:11:40;;;;;;;198.13;125.85;;;;;;;8.89;73.61;100777.78;5051621;28;20028;-22
2022/01/02 03:14:06;;;;;;;124.22;79.53;;;;;;;8.60;74.43;100784.00;5050967;28;20185;-21
2022/01/02 03:16:31;;;;;;;97.85;57.80;;;;;;;8.14;75.90;100784.28;5068659;28;20544;-21
2022/01/02 03:18:57;;;;;;;147.02;89.00;;;;;;;7.88;77.64;100798.84;5068507;28;20074;-21
2022/01/02 03:21:22;;;;;;;51.28;33.60;;;;;;;7.73;77.73;100790.06;5068272;28;20035;-21
2022/01/02 03:23:48;;;;;;;97.07;62.97;;;;;;;7.74;78.18;100791.69;5067894;28;20066;-22
2022/01/02 03:26:13;;;;;;;69.68;46.03;;;;;;;7.98;77.74;100810.03;5050727;28;20043;-22
2022/01/02 03:28:39;;;;;;;64.13;37.13;;;;;;;7.90;78.25;100804.81;5050677;28;20032;-21
2022/01/02 03:31:04;;;;;;;155.70;79.70;;;;;;;7.78;78.81;100800.94;5068012;28;20110;-21
2022/01/02 03:33:30;;;;;;;90.68;48.25;;;;;;;7.90;78.60;100814.59;5068099;28;20032;-21
2022/01/02 03:35:55;;;;;;;74.35;38.67;;;;;;;7.84;78.51;100813.50;5068252;28;20040;-21
2022/01/02 03:38:21;;;;;;;109.90;52.05;;;;;;;7.68;78.96;100805.69;5068103;28;20028;-21
2022/01/02 03:40:46;;;;;;;75.05;37.83;;;;;;;8.00;78.77;100802.69;5068399;28;20037;-21
2022/01/02 03:43:12;;;;;;;43.50;22.92;;;;;;;8.22;78.04;100821.38;5050128;28;20037;-22
2022/01/02 03:45:37;;;;;;;22.60;12.38;;;;;;;8.39;77.58;100825.47;5050167;28;20505;-21
2022/01/02 03:48:03;;;;;;;54.42;23.40;;;;;;;8.42;77.07;100821.66;5068535;28;20056;-21
2022/01/02 03:50:28;;;;;;;74.25;32.45;;;;;;;8.50;76.59;100815.41;5068035;28;20033;-22
2022/01/02 03:52:53;;;;;;;44.45;20.60;;;;;;;8.56;76.18;100814.66;5067915;28;20043;-21
2022/01/02 03:55:21;;;;;;;32.55;16.38;;;;;;;8.63;75.25;100797.75;5068111;28;20039;-22
2022/01/02 03:57:46;;;;;;;68.50;26.92;;;;;;;8.55;75.35;100803.19;5067668;28;20060;-21
2022/01/02 04:00:14;;;;;;;24.70;13.38;;;;;;;8.68;75.04;100807.84;5068113;28;20037;-21
2022/01/02 04:02:39;;;;;;;15.02;10.23;;;;;;;8.57;75.00;100813.66;5068076;28;20415;-22
2022/01/02 04:05:11;;;;;;;13.52;9.13;;;;;;;8.29;75.70;100814.31;5049975;28;20040;-22
2022/01/02 04:07:36;;;;;;;14.63;9.43;;;;;;;8.42;75.40;100824.31;5067678;28;20521;-21
2022/01/02 04:10:06;;;;;;;14.38;9.48;;;;;;;8.39;75.19;100814.84;5067656;28;20064;-21
2022/01/02 04:12:35;;;;;;;18.67;11.02;;;;;;;8.31;75.44;100812.28;5067687;28;20047;-21
2022/01/02 04:15:03;;;;;;;18.20;10.48;;;;;;;8.34;75.77;100822.56;5067682;28;20071;-22
2022/01/02 04:17:28;;;;;;;20.95;13.23;;;;;;;8.22;76.12;100835.47;5049252;28;20573;-22
2022/01/02 04:19:54;;;;;;;13.48;9.45;;;;;;;7.84;77.44;100830.25;5067536;28;20036;-22
2022/01/02 04:22:19;;;;;;;16.08;9.50;;;;;;;7.72;77.74;100817.59;5066905;28;20725;-21
2022/01/02 04:24:46;;;;;;;15.07;10.10;;;;;;;7.87;77.41;100818.47;5067756;28;20047;-21
2022/01/02 04:27:11;;;;;;;16.02;9.90;;;;;;;7.93;77.67;100836.31;5049346;28;20099;-21
2022/01/02 04:29:37;;;;;;;46.55;22.70;;;;;;;7.98;77.53;100836.59;5067282;28;20567;-22
2022/01/02 04:32:02;;;;;;;16.13;10.23;;;;;;;7.72;78.38;100838.84;5049551;28;20052;-22
2022/01/02 04:34:28;;;;;;;15.98;9.68;;;;;;;7.74;78.64;100834.19;5049061;28;20036;-23
2022/01/02 04:36:53;;;;;;;15.70;9.65;;;;;;;7.63;79.38;100844.22;5067502;28;20025;-22
2022/01/02 04:39:19;;;;;;;35.45;18.40;;;;;;;7.64;79.63;100853.88;5067605;28;20060;-22
2022/01/02 04:41:44;;;;;;;14.35;9.38;;;;;;;7.59;79.74;100845.59;5067243;28;20036;-22
2022/01/02 04:44:10;;;;;;;15.48;10.38;;;;;;;7.71;79.30;100853.16;5067297;28;20106;-22
2022/01/02 04:46:35;;;;;;;25.10;14.48;;;;;;;7.77;78.59;100833.84;5049600;28;20036;-22
2022/01/02 04:49:01;;;;;;;15.85;10.00;;;;;;;7.74;78.47;100845.63;5067399;28;20033;-21
2022/01/02 04:51:26;;;;;;;28.95;15.25;;;;;;;7.70;78.44;100832.91;5067292;28;20478;-21
2022/01/02 04:53:52;;;;;;;30.08;18.58;;;;;;;7.64;78.89;100847.72;5049498;28;20029;-21
2022/01/02 04:56:17;;;;;;;27.10;17.30;;;;;;;7.78;78.14;100843.44;5049302;28;20033;-21
2022/01/02 04:58:43;;;;;;;17.58;11.75;;;;;;;7.83;77.48;100841.06;5067374;28;20416;-21
2022/01/02 05:01:12;;;;;;;15.27;10.38;;;;;;;7.87;77.40;100854.78;5049536;28;20043;-23
2022/01/02 05:03:38;;;;;;;16.42;10.20;;;;;;;7.85;77.39;100866.44;5067107;28;20040;-22
2022/01/02 05:06:04;;;;;;;25.20;16.52;;;;;;;7.67;77.67;100851.84;5032854;28;20040;-22
2022/01/02 05:08:30;;;;;;;22.88;14.98;;;;;;;7.77;77.67;100863.84;5032196;28;20097;-22
2022/01/02 05:10:55;;;;;;;16.80;10.65;;;;;;;7.77;77.37;100860.38;5066878;28;20028;-21
2022/01/02 05:13:21;;;;;;;16.55;10.65;;;;;;;7.65;78.21;100879.38;5067343;28;20032;-21
2022/01/02 05:15:46;;;;;;;15.93;10.35;;;;;;;7.75;77.56;100876.50;5067089;28;20556;-22
2022/01/02 05:18:12;;;;;;;18.23;10.80;;;;;;;7.71;77.84;100880.50;5067175;28;20029;-22
2022/01/02 05:20:37;;;;;;;14.43;9.82;;;;;;;7.56;78.86;100879.63;5067118;28;20048;-21
2022/01/02 05:23:03;;;;;;;15.45;9.93;;;;;;;7.55;78.85;100876.16;5067128;28;20032;-22
2022/01/02 05:25:28;;;;;;;15.35;9.98;;;;;;;7.54;80.03;100876.34;5066897;28;20024;-21
2022/01/02 05:27:54;;;;;;;16.45;10.18;;;;;;;7.62;79.78;100884.22;5048732;28;20036;-22
2022/01/02 05:30:19;;;;;;;15.57;9.90;;;;;;;7.42;79.78;100854.72;5066954;28;20049;-25
2022/01/02 05:32:45;;;;;;;15.50;10.30;;;;;;;7.29;80.00;100854.50;5066981;28;20032;-22
2022/01/02 05:35:10;;;;;;;16.80;11.30;;;;;;;7.85;78.76;100885.03;5066909;28;20090;-21
2022/01/02 05:37:36;;;;;;;16.45;10.52;;;;;;;7.86;77.73;100883.19;5066651;28;20028;-21
2022/01/02 05:40:01;;;;;;;14.43;10.02;;;;;;;8.03;77.42;100879.38;5066973;28;20041;-21
2022/01/02 05:42:28;;;;;;;15.45;10.43;;;;;;;7.79;77.92;100882.28;5048784;28;20118;-22
2022/01/02 05:44:53;;;;;;;14.88;10.15;;;;;;;8.08;77.41;100892.09;5066789;28;20033;-21
2022/01/02 05:47:19;;;;;;;16.10;10.07;;;;;;;7.71;77.57;100898.28;5070195;28;20047;-22
2022/01/02 05:49:44;;;;;;;14.73;9.90;;;;;;;7.26;78.52;100898.13;5052297;28;20044;-22
2022/01/02 05:52:10;;;;;;;15.73;10.10;;;;;;;7.14;78.60;100896.88;5070589;28;20496;-23
2022/01/02 05:54:35;;;;;;;70.57;35.65;;;;;;;7.03;77.59;100872.41;5070624;28;20037;-21
2022/01/02 05:57:01;;;;;;;552.70;263.23;;;;;;;7.59;76.61;100905.84;5070230;28;20028;-21
2022/01/02 05:59:26;;;;;;;206.57;95.63;;;;;;;7.56;76.02;100896.41;5070078;28;20020;-22
2022/01/02 06:01:51;;;;;;;78.55;42.00;;;;;;;7.60;76.25;100910.13;5035689;28;20036;-22
2022/01/02 06:04:17;;;;;;;36.10;22.73;;;;;;;7.52;76.54;100908.38;5052418;28;20036;-21
2022/01/02 06:06:44;;;;;;;28.55;16.70;;;;;;;7.59;77.30;100901.34;5070321;28;20036;-21
2022/01/02 06:09:09;;;;;;;49.08;27.38;;;;;;;7.83;76.95;100910.13;5070069;28;20028;-21
2022/01/02 06:11:36;;;;;;;28.70;17.35;;;;;;;8.08;76.08;100915.19;5069697;28;20111;-21
2022/01/02 06:14:01;;;;;;;31.73;21.30;;;;;;;7.89;76.80;100909.41;5052245;28;20043;-21
2022/01/02 06:16:27;;;;;;;35.83;22.83;;;;;;;7.27;78.86;100904.25;5052190;28;20557;-22
2022/01/02 06:18:53;;;;;;;26.95;19.73;;;;;;;7.59;78.95;100919.94;5051808;28;20033;-22
2022/01/02 06:21:19;;;;;;;24.50;15.25;;;;;;;7.41;79.90;100917.56;5069772;28;20033;-22
2022/01/02 06:23:44;;;;;;;22.42;12.70;;;;;;;7.48;80.33;100916.84;5069503;28;20112;-22
2022/01/02 06:26:10;;;;;;;19.77;12.98;;;;;;;7.57;80.56;100915.81;5069720;28;20032;-22
2022/01/02 06:28:35;;;;;;;19.02;11.93;;;;;;;7.62;80.93;100914.28;5069983;28;20036;-22
2022/01/02 06:31:01;;;;;;;18.90;11.82;;;;;;;7.90;80.02;100926.97;5069805;28;20056;-23
2022/01/02 06:33:26;;;;;;;18.48;12.10;;;;;;;7.71;80.31;100908.91;5069333;28;20834;-21
2022/01/02 06:35:52;;;;;;;17.23;11.07;;;;;;;7.87;79.78;100943.28;5051384;28;20066;-22
2022/01/02 06:38:21;;;;;;;16.25;11.15;;;;;;;8.08;78.04;100949.72;5069773;28;20082;-22
2022/01/02 06:40:46;;;;;;;19.27;11.05;;;;;;;8.23;77.12;100955.88;5051305;28;20038;-22
2022/01/02 06:43:16;;;;;;;16.50;10.60;;;;;;;8.01;77.45;100934.50;5051738;28;20055;-21
2022/01/02 06:45:45;;;;;;;16.63;11.00;;;;;;;8.28;77.56;100956.16;5069100;28;20114;-22
2022/01/02 06:48:10;;;;;;;17.17;12.00;;;;;;;8.61;77.68;100961.16;5069321;28;20020;-22
2022/01/02 06:50:36;;;;;;;41.70;29.20;;;;;;;8.87;76.54;100967.81;5069656;28;20851;-21
2022/01/02 06:53:02;;;;;;;58.67;40.53;;;;;;;9.16;75.91;100962.47;5069356;28;20052;-22
2022/01/02 06:55:30;;;;;;;35.55;23.70;;;;;;;9.32;76.03;100971.25;5069082;28;20078;-21
2022/01/02 06:57:56;;;;;;;17.92;12.70;;;;;;;9.42;75.10;100953.13;5068814;28;20598;-22
2022/01/02 07:00:22;;;;;;;23.02;12.43;;;;;;;9.54;74.55;100962.25;5069143;28;20477;-21
2022/01/02 07:02:47;;;;;;;15.88;10.75;;;;;;;9.39;75.56;100953.50;5069002;28;20036;-22
2022/01/02 07:05:13;;;;;;;17.33;11.07;;;;;;;9.10;77.05;100960.53;5069110;28;20461;-21
2022/01/02 07:07:45;;;;;;;15.65;11.00;;;;;;;9.35;76.64;100968.19;5050950;28;20081;-22
2022/01/02 07:10:11;;;;;;;18.67;11.68;;;;;;;9.31;77.03;100961.59;5069126;28;20484;-21
2022/01/02 07:12:37;;;;;;;15.85;11.63;;;;;;;9.26;76.92;100940.88;5068974;28;20028;-22
2022/01/02 07:15:04;;;;;;;18.27;12.20;;;;;;;9.38;76.86;100952.66;5067774;28;20846;-22
2022/01/02 07:17:29;;;;;;;16.23;11.18;;;;;;;9.36;76.98;100932.59;5068423;28;20047;-22
2022/01/02 07:19:55;;;;;;;17.90;11.77;;;;;;;9.58;76.92;100960.88;5068667;28;20484;-22
2022/01/02 07:22:20;;;;;;;18.17;11.70;;;;;;;9.86;76.10;100955.56;5068822;28;20074;-22
2022/01/02 07:24:50;;;;;;;17.67;11.35;;;;;;;10.01;75.49;100970.63;5068561;28;20041;-21
2022/01/02 07:27:16;;;;;;;17.38;11.75;;;;;;;10.02;76.14;100961.63;5068397;28;20043;-22
2022/01/02 07:29:41;;;;;;;16.35;10.88;;;;;;;10.20;75.23;100966.50;5068257;28;20503;-22
2022/01/02 07:32:07;;;;;;;16.50;11.02;;;;;;;10.42;74.57;100959.25;5068655;28;20423;-21
2022/01/02 07:34:32;;;;;;;15.77;10.50;;;;;;;10.33;73.58;100949.78;5068259;28;20067;-21
2022/01/02 07:36:58;;;;;;;15.60;11.55;;;;;;;10.55;74.45;100967.34;5068153;28;20404;-21
2022/01/02 07:39:23;;;;;;;14.43;10.20;;;;;;;10.77;72.44;100968.09;5067948;28;20034;-22
2022/01/02 07:41:49;;;;;;;16.90;10.30;;;;;;;10.89;71.72;100960.34;5068401;28;20043;-21
2022/01/02 07:44:15;;;;;;;15.50;10.20;;;;;;;10.89;70.97;100959.50;5068456;28;20052;-22
2022/01/02 07:46:40;;;;;;;16.58;11.18;;;;;;;11.01;71.69;100948.09;5068365;28;20811;-21
2022/01/02 07:49:06;;;;;;;15.90;10.50;;;;;;;11.03;72.11;100955.88;5068020;28;20028;-21
2022/01/02 07:51:31;;;;;;;15.93;10.45;;;;;;;11.22;71.85;100955.13;5067735;28;20032;-22
2022/01/02 07:53:57;;;;;;;16.60;11.48;;;;;;;11.27;72.35;100960.66;5049987;28;20041;-22
2022/01/02 07:56:24;;;;;;;16.73;11.43;;;;;;;11.39;71.61;100947.56;5068093;28;20044;-21
2022/01/02 07:58:50;;;;;;;19.42;12.32;;;;;;;11.59;69.90;100954.78;5067774;28;20071;-21
2022/01/02 08:01:15;;;;;;;17.38;11.32;;;;;;;11.49;70.35;100939.16;5048532;28;20047;-21
2022/01/02 08:03:41;;;;;;;17.88;11.43;;;;;;;11.66;70.77;100953.75;5067888;28;20518;-21
2022/01/02 08:06:06;;;;;;;25.77;12.25;;;;;;;11.75;70.23;100974.94;5049993;28;20040;-21
2022/01/02 08:08:32;;;;;;;16.88;11.70;;;;;;;11.97;69.71;100968.41;5067091;28;20032;-21
2022/01/02 08:10:57;;;;;;;18.40;10.98;;;;;;;12.30;69.55;100967.56;5067879;28;20032;-21
2022/01/02 08:13:23;;;;;;;18.67;11.88;;;;;;;12.45;68.41;100970.81;5067867;28;20056;-23
2022/01/02 08:15:49;;;;;;;29.13;17.38;;;;;;;12.55;68.85;100969.59;5049879;28;20066;-22
2022/01/02 08:18:15;;;;;;;14.80;10.65;;;;;;;12.75;67.32;100974.84;5067698;28;20111;-21
2022/01/02 08:20:41;;;;;;;13.73;10.07;;;;;;;12.86;66.69;100983.06;5067502;28;20036;-22
2022/01/02 08:23:06;;;;;;;14.48;10.43;;;;;;;13.21;65.46;100995.28;5049914;28;20036;-23
2022/01/02 08:25:32;;;;;;;14.23;9.93;;;;;;;13.07;65.10;100989.97;5049164;28;20110;-21
2022/01/02 08:27:57;;;;;;;16.30;10.82;;;;;;;13.41;65.02;100979.97;5067626;28;20043;-22
2022/01/02 08:30:23;;;;;;;13.45;10.00;;;;;;;13.54;64.62;100991.63;5067706;28;20512;-21
2022/01/02 08:32:48;;;;;;;12.98;10.05;;;;;;;13.92;64.44;100980.03;5067594;28;20454;-21
2022/01/02 08:35:14;;;;;;;15.02;9.77;;;;;;;13.93;63.06;100984.34;5066554;28;20051;-22
2022/01/02 08:37:40;;;;;;;15.38;10.05;;;;;;;13.87;64.32;100983.34;5067278;28;20493;-22
2022/01/02 08:40:06;;;;;;;13.65;10.60;;;;;;;13.96;63.09;100976.69;5067333;28;20032;-22
2022/01/02 08:42:32;;;;;;;19.90;12.15;;;;;;;14.15;62.58;100988.28;5067368;28;20440;-22
2022/01/02 08:44:58;;;;;;;13.23;7.22;;;;;;;13.90;61.09;100982.94;5067514;28;20040;-22
2022/01/02 08:47:23;;;;;;;8.40;6.10;;;;;;;13.80;61.79;100983.41;5067116;28;20033;-23
2022/01/02 08:49:49;;;;;;;9.57;5.55;;;;;;;13.91;61.26;100995.28;5049461;28;20043;-21
2022/01/02 08:52:14;;;;;;;9.25;5.22;;;;;;;13.67;60.59;100962.06;5067396;28;20550;-21
2022/01/02 08:54:40;;;;;;;9.50;5.60;;;;;;;13.89;61.21;100992.00;5067274;28;20040;-21
2022/01/02 08:57:05;;;;;;;9.75;6.38;;;;;;;14.10;60.83;100998.03;5067309;28;20401;-22
2022/01/02 08:59:31;;;;;;;10.73;6.18;;;;;;;14.22;59.25;100990.91;5067228;28;20033;-22
2022/01/02 09:01:57;;;;;;;11.30;7.22;;;;;;;14.12;60.21;100980.69;5067437;28;20025;-21
2022/01/02 09:04:22;;;;;;;8.80;5.60;;;;;;;14.18;59.88;100993.22;5067362;28;20090;-21
2022/01/02 09:06:48;;;;;;;8.10;5.82;;;;;;;14.33;59.38;100975.97;5032723;28;20075;-21
2022/01/02 09:09:13;;;;;;;8.82;6.25;;;;;;;14.19;59.60;100970.72;5049399;28;20033;-21
2022/01/02 09:11:39;;;;;;;12.57;6.75;;;;;;;14.43;60.04;100960.97;5066988;28;20033;-21
2022/01/02 09:14:04;;;;;;;8.50;5.95;;;;;;;14.44;58.25;100972.53;5067454;28;20400;-28
2022/01/02 09:16:30;;;;;;;10.23;7.03;;;;;;;14.57;58.63;100972.44;5067114;28;20033;-22
2022/01/02 09:18:55;;;;;;;10.63;6.05;;;;;;;14.55;58.53;100971.81;5067090;28;20032;-22
2022/01/02 09:21:21;;;;;;;8.68;6.30;;;;;;;14.55;59.26;100968.31;5071020;28;20082;-21
2022/01/02 09:23:46;;;;;;;12.20;6.90;;;;;;;14.80;58.44;100957.53;5070833;28;20148;-21
2022/01/02 09:26:12;;;;;;;9.00;5.72;;;;;;;14.55;56.74;100947.66;5070593;28;20039;-21
2022/01/02 09:28:37;;;;;;;14.13;6.38;;;;;;;14.83;56.98;100947.16;5070872;28;20037;-22
2022/01/02 09:31:03;;;;;;;10.35;5.50;;;;;;;14.76;56.79;100951.78;5070549;28;20114;-22
2022/01/02 09:33:28;;;;;;;8.98;6.15;;;;;;;14.87;57.77;100960.94;5052436;28;20493;-21
2022/01/02 09:35:54;;;;;;;8.63;6.57;;;;;;;15.17;57.80;100944.03;5070910;28;20028;-22
2022/01/02 09:38:19;;;;;;;8.05;5.18;;;;;;;15.47;57.22;100949.41;5070696;28;20989;-21
2022/01/02 09:40:46;;;;;;;9.77;5.40;;;;;;;15.11;56.79;100951.13;5070421;28;20032;-21
2022/01/02 09:43:12;;;;;;;7.45;5.05;;;;;;;15.00;55.84;100930.41;5036139;28;20028;-21
2022/01/02 09:45:38;;;;;;;8.27;5.60;;;;;;;15.04;57.54;100940.47;5070255;28;20040;-21
2022/01/02 09:48:05;;;;;;;8.30;5.43;;;;;;;15.36;56.23;100942.09;5052683;28;20025;-21
2022/01/02 09:50:31;;;;;;;10.70;5.68;;;;;;;15.52;55.38;100933.38;5070597;28;20070;-21
2022/01/02 09:52:57;;;;;;;7.88;5.60;;;;;;;15.79;55.20;100941.91;5070245;28;20460;-21
2022/01/02 09:55:22;;;;;;;7.90;5.43;;;;;;;15.84;54.45;100943.88;5070455;28;20566;-21
2022/01/02 09:57:48;;;;;;;7.72;5.45;;;;;;;15.68;55.15;100935.41;5052189;28;20037;-21
2022/01/02 10:00:14;;;;;;;7.57;4.82;;;;;;;15.54;53.98;100944.72;5070331;28;20028;-21
2022/01/02 10:02:58;;;;;;;7.18;4.97;;;;;;;15.66;55.15;100934.81;5070239;28;20028;-21
2022/01/02 10:05:25;;;;;;;7.32;5.50;;;;;;;16.07;53.91;100933.13;5051893;28;20029;-22
2022/01/02 10:07:54;;;;;;;7.32;5.30;;;;;;;16.39;51.57;100938.16;5052094;28;20113;-21
2022/01/02 10:10:19;;;;;;;7.40;5.18;;;;;;;16.41;53.92;100911.81;5070233;28;20082;-21
2022/01/02 10:12:45;;;;;;;7.32;5.05;;;;;;;16.56;52.48;100918.56;5070265;28;20044;-21
2022/01/02 10:15:21;;;;;;;8.43;5.28;;;;;;;16.58;54.67;100916.47;5069961;28;20036;-21
2022/01/02 10:17:50;;;;;;;7.25;5.20;;;;;;;16.36;52.77;100908.19;5069601;28;20478;-21
2022/01/02 10:20:16;;;;;;;7.68;5.28;;;;;;;16.58;51.16;100906.50;5070285;28;20032;-21
2022/01/02 10:23:00;;;;;;;7.95;5.68;;;;;;;16.35;51.47;100907.38;5051917;28;20032;-21
2022/01/02 10:25:40;;;;;;;7.35;4.65;;;;;;;16.69;52.54;100902.13;5069662;28;20031;-21
2022/01/02 10:28:18;;;;;;;6.82;4.70;;;;;;;16.77;50.79;100896.38;5052006;28;20511;-21
2022/01/02 10:30:48;;;;;;;8.05;5.28;;;;;;;16.38;52.21;100893.44;5069138;28;20060;-22
2022/01/02 10:33:14;;;;;;;10.43;5.90;;;;;;;16.72;50.49;100898.97;5069480;28;20028;-21
2022/01/02 10:35:41;;;;;;;7.80;5.10;;;;;;;16.83;50.82;100895.44;5069288;28;20032;-21
2022/01/02 10:38:06;;;;;;;6.15;4.55;;;;;;;16.87;50.33;100883.13;5069415;28;20074;-21
2022/01/02 10:40:40;;;;;;;8.43;5.13;;;;;;;17.08;50.59;100886.22;5069641;28;20044;-22
2022/01/02 10:43:22;;;;;;;7.35;5.20;;;;;;;17.21;50.42;100891.28;5069508;28;20409;-22
2022/01/02 10:45:50;;;;;;;9.10;5.70;;;;;;;17.21;49.90;100883.19;5069300;28;20027;-21
2022/01/02 10:48:37;;;;;;;9.77;6.15;;;;;;;17.42;50.39;100899.72;5069431;28;20020;-21
2022/01/02 10:51:16;;;;;;;8.80;6.40;;;;;;;17.93;49.33;100892.47;5069661;28;20031;-21
2022/01/02 10:54:08;;;;;;;9.23;5.95;;;;;;;17.86;49.09;100891.84;5051745;28;20107;-21
2022/01/02 10:56:33;;;;;;;14.50;9.15;;;;;;;17.70;48.93;100879.97;5047757;28;20040;-21
2022/01/02 10:58:59;;;;;;;31.92;18.92;;;;;;;18.36;48.62;100888.19;5068822;28;20036;-21
2022/01/02 11:01:24;;;;;;;8.50;5.47;;;;;;;18.02;46.49;100872.09;5068849;28;20114;-21
2022/01/02 11:03:50;;;;;;;8.00;5.05;;;;;;;17.50;48.47;100866.16;5034700;28;20066;-21
2022/01/02 11:06:26;;;;;;;8.73;6.15;;;;;;;18.34;46.13;100876.03;5050789;28;20029;-21
2022/01/02 11:08:52;;;;;;;7.30;4.72;;;;;;;18.30;47.35;100864.09;5050938;28;20786;-21
2022/01/02 11:11:18;;;;;;;6.32;4.55;;;;;;;18.48;46.42;100851.06;5034067;28;20055;-21
2022/01/02 11:13:44;;;;;;;6.93;4.28;;;;;;;18.82;44.76;100859.06;5050871;28;20101;-21
2022/01/02 11:16:09;;;;;;;7.43;5.05;;;;;;;19.03;45.55;100860.06;5068883;28;20450;-21
2022/01/02 11:18:36;;;;;;;7.13;4.45;;;;;;;19.24;44.29;100855.66;5068878;28;20028;-21
2022/01/02 11:21:04;;;;;;;6.85;4.68;;;;;;;18.83;43.98;100846.34;5068829;28;20606;-21
2022/01/02 11:23:33;;;;;;;6.95;4.55;;;;;;;18.80;44.43;100860.38;5033999;28;20048;-21